Navigator Spirit — C6WL4 — position and weather

sailwx.info

Track history (hours):
 
Tides and Currents Weather Stations Pressure Air Temp Water Temp Dewpoint Dewpoint Depression Visibility Wind Speed Wind Dir Waves Ship Positions

Navigator Spirit

Last reported at 2015-Jan-19 11:33 UTC. Time now 2015-Jan-29 08:21 UTC.
Position S 23°19' W 041°16'.
Warning: this ship's position is 9 days out of date.

Length 241 m; draft 8 m.

Type: Tanker. MMSI: 309198000.

Date/timePositionNaut miles runAvg speedWind from/ knotsBaromVisibWave heightAir tempDewpointWater temp
2015-Jan-19 11:33S 23°19' W 041°16'0 0.0
2015-Jan-19 10:34S 23°19' W 041°16'0 0.0
2015-Jan-19 09:34S 23°19' W 041°16'0 0.0
2015-Jan-19 08:33S 23°19' W 041°16'0 0.0
2015-Jan-19 06:11S 23°19' W 041°16'0 0.0
2015-Jan-19 05:29S 23°19' W 041°16'0 0.0
2015-Jan-19 04:33S 23°19' W 041°16'0 0.1
2015-Jan-19 03:34S 23°19' W 041°16'0 0.0
2015-Jan-19 02:33S 23°19' W 041°16'0 0.1
2015-Jan-19 01:34S 23°19' W 041°16'0 0.0
2015-Jan-19 00:34S 23°19' W 041°16'0 0.0
2015-Jan-18 23:14S 23°19' W 041°16'0 0.0
2015-Jan-18 20:33S 23°19' W 041°16'0 0.0
2015-Jan-18 19:32S 23°19' W 041°16'0 0.0
2015-Jan-18 18:33S 23°19' W 041°16'0 0.0
2015-Jan-18 17:34S 23°19' W 041°16'0 0.0
2015-Jan-18 16:33S 23°19' W 041°16'0 0.0
2015-Jan-18 15:34S 23°19' W 041°16'0 0.0
2015-Jan-18 14:08S 23°19' W 041°16'0 0.0
2015-Jan-18 13:33S 23°19' W 041°16'0 0.1
2015-Jan-18 12:33S 23°19' W 041°16'2 2.2
2015-Jan-18 11:33S 23°21' W 041°17'1 0.6
2015-Jan-18 10:33S 23°21' W 041°16'1 0.5
2015-Jan-18 09:33S 23°21' W 041°16'4 4.5
2015-Jan-18 08:33S 23°25' W 041°19'6 5.0
2015-Jan-18 07:19S 23°25' W 041°25'6 7.3
2015-Jan-18 06:28S 23°22' W 041°31'  
2015-Jan-11 21:12S 23°08' W 042°56'0 0.0
2015-Jan-11 20:15S 23°08' W 042°56'0 0.0
2015-Jan-11 18:21S 23°08' W 042°56'  
Track history (hours):
 
Tides and Currents Weather Stations Pressure Air Temp Water Temp Dewpoint Dewpoint Depression Visibility Wind Speed Wind Dir Waves Ship Positions

Navigator Spirit

Last reported at 2015-Jan-19 11:33 UTC. Time now 2015-Jan-29 08:21 UTC.
Position S 23°19' W 041°16'.
Warning: this ship's position is 9 days out of date.

Length 241 m; draft 8 m.

Type: Tanker. MMSI: 309198000.

Date/timePositionNaut miles runAvg speedWind from/ knotsBaromVisibWave heightAir tempDewpointWater temp
2015-Jan-19 11:33S 23°19' W 041°16'0 0.0
2015-Jan-19 10:34S 23°19' W 041°16'0 0.0
2015-Jan-19 09:34S 23°19' W 041°16'0 0.0
2015-Jan-19 08:33S 23°19' W 041°16'0 0.0
2015-Jan-19 06:11S 23°19' W 041°16'0 0.0
2015-Jan-19 05:29S 23°19' W 041°16'0 0.0
2015-Jan-19 04:33S 23°19' W 041°16'0 0.1
2015-Jan-19 03:34S 23°19' W 041°16'0 0.0
2015-Jan-19 02:33S 23°19' W 041°16'0 0.1
2015-Jan-19 01:34S 23°19' W 041°16'0 0.0
2015-Jan-19 00:34S 23°19' W 041°16'0 0.0
2015-Jan-18 23:14S 23°19' W 041°16'0 0.0
2015-Jan-18 20:33S 23°19' W 041°16'0 0.0
2015-Jan-18 19:32S 23°19' W 041°16'0 0.0
2015-Jan-18 18:33S 23°19' W 041°16'0 0.0
2015-Jan-18 17:34S 23°19' W 041°16'0 0.0
2015-Jan-18 16:33S 23°19' W 041°16'0 0.0
2015-Jan-18 15:34S 23°19' W 041°16'0 0.0
2015-Jan-18 14:08S 23°19' W 041°16'0 0.0
2015-Jan-18 13:33S 23°19' W 041°16'0 0.1
2015-Jan-18 12:33S 23°19' W 041°16'2 2.2
2015-Jan-18 11:33S 23°21' W 041°17'1 0.6
2015-Jan-18 10:33S 23°21' W 041°16'1 0.5
2015-Jan-18 09:33S 23°21' W 041°16'4 4.5
2015-Jan-18 08:33S 23°25' W 041°19'6 5.0
2015-Jan-18 07:19S 23°25' W 041°25'6 7.3
2015-Jan-18 06:28S 23°22' W 041°31'  
2015-Jan-11 21:12S 23°08' W 042°56'0 0.0
2015-Jan-11 20:15S 23°08' W 042°56'0 0.0
2015-Jan-11 18:21S 23°08' W 042°56'  

Dump ship's entire track history